sensor_id;sensor_type;location;lat;lon;timestamp;temperature;humidity
15638;DHT22;26604;53.596;10.042;2024-02-21T00:02:21;9.60;99.90
15638;DHT22;26604;53.596;10.042;2024-02-21T00:04:48;9.60;99.90
15638;DHT22;26604;53.596;10.042;2024-02-21T00:07:15;9.60;99.90
15638;DHT22;26604;53.596;10.042;2024-02-21T00:09:43;9.60;99.90
15638;DHT22;26604;53.596;10.042;2024-02-21T00:12:10;9.60;99.90
15638;DHT22;26604;53.596;10.042;2024-02-21T00:14:39;9.60;99.90
15638;DHT22;26604;53.596;10.042;2024-02-21T00:17:06;9.60;99.90
15638;DHT22;26604;53.596;10.042;2024-02-21T00:19:34;9.60;99.90
15638;DHT22;26604;53.596;10.042;2024-02-21T00:22:01;9.60;99.90
15638;DHT22;26604;53.596;10.042;2024-02-21T00:24:27;9.50;99.90
15638;DHT22;26604;53.596;10.042;2024-02-21T00:26:56;9.50;99.90
15638;DHT22;26604;53.596;10.042;2024-02-21T00:29:22;9.50;99.90
15638;DHT22;26604;53.596;10.042;2024-02-21T00:31:49;9.50;99.90
15638;DHT22;26604;53.596;10.042;2024-02-21T00:34:16;9.50;99.90
15638;DHT22;26604;53.596;10.042;2024-02-21T00:36:43;9.50;99.90
15638;DHT22;26604;53.596;10.042;2024-02-21T00:39:10;9.50;99.90
15638;DHT22;26604;53.596;10.042;2024-02-21T00:41:37;9.50;99.90
15638;DHT22;26604;53.596;10.042;2024-02-21T00:44:05;9.50;99.90
15638;DHT22;26604;53.596;10.042;2024-02-21T00:46:32;9.50;99.90
15638;DHT22;26604;53.596;10.042;2024-02-21T00:48:59;9.50;99.90
15638;DHT22;26604;53.596;10.042;2024-02-21T00:51:26;9.50;99.90
15638;DHT22;26604;53.596;10.042;2024-02-21T00:53:52;9.50;99.90
15638;DHT22;26604;53.596;10.042;2024-02-21T00:56:19;9.50;99.90
15638;DHT22;26604;53.596;10.042;2024-02-21T00:58:46;9.50;99.90
15638;DHT22;26604;53.596;10.042;2024-02-21T01:01:21;9.50;99.90
15638;DHT22;26604;53.596;10.042;2024-02-21T01:03:49;9.60;99.90
15638;DHT22;26604;53.596;10.042;2024-02-21T01:06:26;9.50;99.90
15638;DHT22;26604;53.596;10.042;2024-02-21T01:08:52;9.50;99.90
15638;DHT22;26604;53.596;10.042;2024-02-21T01:11:19;9.60;99.90
15638;DHT22;26604;53.596;10.042;2024-02-21T01:13:46;9.60;99.90
15638;DHT22;26604;53.596;10.042;2024-02-21T01:16:14;9.60;99.90
15638;DHT22;26604;53.596;10.042;2024-02-21T01:18:41;9.50;99.90
15638;DHT22;26604;53.596;10.042;2024-02-21T01:21:08;9.60;99.90
15638;DHT22;26604;53.596;10.042;2024-02-21T01:23:36;9.60;99.90
15638;DHT22;26604;53.596;10.042;2024-02-21T01:26:03;9.60;99.90
15638;DHT22;26604;53.596;10.042;2024-02-21T01:28:30;9.60;99.90
15638;DHT22;26604;53.596;10.042;2024-02-21T01:30:57;9.70;99.90
15638;DHT22;26604;53.596;10.042;2024-02-21T01:33:25;9.60;99.90
15638;DHT22;26604;53.596;10.042;2024-02-21T01:35:52;9.60;99.90
15638;DHT22;26604;53.596;10.042;2024-02-21T01:38:19;9.60;99.90
15638;DHT22;26604;53.596;10.042;2024-02-21T01:40:46;9.60;99.90
15638;DHT22;26604;53.596;10.042;2024-02-21T01:43:17;9.60;99.90
15638;DHT22;26604;53.596;10.042;2024-02-21T01:45:48;9.60;99.90
15638;DHT22;26604;53.596;10.042;2024-02-21T01:48:16;9.60;99.90
15638;DHT22;26604;53.596;10.042;2024-02-21T01:50:46;9.50;99.90
15638;DHT22;26604;53.596;10.042;2024-02-21T01:53:14;9.50;99.90
15638;DHT22;26604;53.596;10.042;2024-02-21T01:55:44;9.50;99.90
15638;DHT22;26604;53.596;10.042;2024-02-21T01:58:11;9.40;99.90
15638;DHT22;26604;53.596;10.042;2024-02-21T02:00:41;9.40;99.90
15638;DHT22;26604;53.596;10.042;2024-02-21T02:03:10;9.40;99.90
15638;DHT22;26604;53.596;10.042;2024-02-21T02:05:43;9.40;99.90
15638;DHT22;26604;53.596;10.042;2024-02-21T02:08:11;9.30;99.90
15638;DHT22;26604;53.596;10.042;2024-02-21T02:10:39;9.30;99.90
15638;DHT22;26604;53.596;10.042;2024-02-21T02:13:06;9.30;99.90
15638;DHT22;26604;53.596;10.042;2024-02-21T02:15:40;9.20;99.90
15638;DHT22;26604;53.596;10.042;2024-02-21T02:18:07;9.20;99.90
15638;DHT22;26604;53.596;10.042;2024-02-21T02:20:34;9.20;99.90
15638;DHT22;26604;53.596;10.042;2024-02-21T02:23:05;9.20;99.90
15638;DHT22;26604;53.596;10.042;2024-02-21T02:25:34;9.20;99.90
15638;DHT22;26604;53.596;10.042;2024-02-21T02:28:02;9.20;99.90
15638;DHT22;26604;53.596;10.042;2024-02-21T02:30:31;9.20;99.90
15638;DHT22;26604;53.596;10.042;2024-02-21T02:32:58;9.20;99.90
15638;DHT22;26604;53.596;10.042;2024-02-21T02:35:25;9.20;99.90
15638;DHT22;26604;53.596;10.042;2024-02-21T02:37:52;9.20;99.90
15638;DHT22;26604;53.596;10.042;2024-02-21T02:40:19;9.10;99.90
15638;DHT22;26604;53.596;10.042;2024-02-21T02:42:48;9.20;99.90
15638;DHT22;26604;53.596;10.042;2024-02-21T02:45:15;9.10;99.90
15638;DHT22;26604;53.596;10.042;2024-02-21T02:47:42;9.10;99.90
15638;DHT22;26604;53.596;10.042;2024-02-21T02:50:11;9.20;99.90
15638;DHT22;26604;53.596;10.042;2024-02-21T02:52:38;9.20;99.90
15638;DHT22;26604;53.596;10.042;2024-02-21T02:55:05;9.20;99.90
15638;DHT22;26604;53.596;10.042;2024-02-21T02:57:33;9.20;99.90
15638;DHT22;26604;53.596;10.042;2024-02-21T03:00:01;9.20;99.90
15638;DHT22;26604;53.596;10.042;2024-02-21T03:02:28;9.20;99.90
15638;DHT22;26604;53.596;10.042;2024-02-21T03:04:55;9.20;99.90
15638;DHT22;26604;53.596;10.042;2024-02-21T03:07:23;9.20;99.90
15638;DHT22;26604;53.596;10.042;2024-02-21T03:09:50;9.30;99.90
15638;DHT22;26604;53.596;10.042;2024-02-21T03:12:17;9.30;99.90
15638;DHT22;26604;53.596;10.042;2024-02-21T03:14:50;9.30;99.90
15638;DHT22;26604;53.596;10.042;2024-02-21T03:17:18;9.40;99.90
15638;DHT22;26604;53.596;10.042;2024-02-21T03:19:45;9.40;99.90
15638;DHT22;26604;53.596;10.042;2024-02-21T03:22:14;9.40;99.90
15638;DHT22;26604;53.596;10.042;2024-02-21T03:24:41;9.50;99.90
15638;DHT22;26604;53.596;10.042;2024-02-21T03:27:08;9.50;99.90
15638;DHT22;26604;53.596;10.042;2024-02-21T03:29:35;9.50;99.90
15638;DHT22;26604;53.596;10.042;2024-02-21T03:32:02;9.50;99.90
15638;DHT22;26604;53.596;10.042;2024-02-21T03:34:30;9.50;99.90
15638;DHT22;26604;53.596;10.042;2024-02-21T03:36:57;9.50;99.90
15638;DHT22;26604;53.596;10.042;2024-02-21T03:39:24;9.50;99.90
15638;DHT22;26604;53.596;10.042;2024-02-21T03:41:51;9.60;99.90
15638;DHT22;26604;53.596;10.042;2024-02-21T03:44:18;9.60;99.90
15638;DHT22;26604;53.596;10.042;2024-02-21T03:46:45;9.60;99.90
15638;DHT22;26604;53.596;10.042;2024-02-21T03:49:12;9.60;99.90
15638;DHT22;26604;53.596;10.042;2024-02-21T03:51:40;9.70;99.90
15638;DHT22;26604;53.596;10.042;2024-02-21T03:54:07;9.70;99.90
15638;DHT22;26604;53.596;10.042;2024-02-21T03:56:37;9.60;99.90
15638;DHT22;26604;53.596;10.042;2024-02-21T03:59:05;9.60;99.90
15638;DHT22;26604;53.596;10.042;2024-02-21T04:01:32;9.70;99.90
15638;DHT22;26604;53.596;10.042;2024-02-21T04:03:59;9.60;99.90
15638;DHT22;26604;53.596;10.042;2024-02-21T04:06:26;9.70;99.90
15638;DHT22;26604;53.596;10.042;2024-02-21T04:08:54;9.60;99.90
15638;DHT22;26604;53.596;10.042;2024-02-21T04:11:21;9.60;99.90
15638;DHT22;26604;53.596;10.042;2024-02-21T04:13:48;9.60;99.90
15638;DHT22;26604;53.596;10.042;2024-02-21T04:16:15;9.50;99.90
15638;DHT22;26604;53.596;10.042;2024-02-21T04:18:42;9.50;99.90
15638;DHT22;26604;53.596;10.042;2024-02-21T04:21:10;9.50;99.90
15638;DHT22;26604;53.596;10.042;2024-02-21T04:23:36;9.50;99.90
15638;DHT22;26604;53.596;10.042;2024-02-21T04:26:05;9.50;99.90
15638;DHT22;26604;53.596;10.042;2024-02-21T04:28:32;9.40;99.90
15638;DHT22;26604;53.596;10.042;2024-02-21T04:30:59;9.40;99.90
15638;DHT22;26604;53.596;10.042;2024-02-21T04:33:26;9.40;99.90
15638;DHT22;26604;53.596;10.042;2024-02-21T04:35:53;9.30;99.90
15638;DHT22;26604;53.596;10.042;2024-02-21T04:38:20;9.30;99.90
15638;DHT22;26604;53.596;10.042;2024-02-21T04:40:47;9.30;99.90
15638;DHT22;26604;53.596;10.042;2024-02-21T04:43:16;9.30;99.90
15638;DHT22;26604;53.596;10.042;2024-02-21T04:45:43;9.30;99.90
15638;DHT22;26604;53.596;10.042;2024-02-21T04:48:09;9.30;99.90
15638;DHT22;26604;53.596;10.042;2024-02-21T04:50:36;9.30;99.90
15638;DHT22;26604;53.596;10.042;2024-02-21T04:53:03;9.30;99.90
15638;DHT22;26604;53.596;10.042;2024-02-21T04:55:30;9.30;99.90
15638;DHT22;26604;53.596;10.042;2024-02-21T04:57:57;9.30;99.90
15638;DHT22;26604;53.596;10.042;2024-02-21T05:00:25;9.30;99.90
15638;DHT22;26604;53.596;10.042;2024-02-21T05:02:52;9.30;99.90
15638;DHT22;26604;53.596;10.042;2024-02-21T05:05:19;9.30;99.90
15638;DHT22;26604;53.596;10.042;2024-02-21T05:07:46;9.30;99.90
15638;DHT22;26604;53.596;10.042;2024-02-21T05:10:13;9.20;99.90
15638;DHT22;26604;53.596;10.042;2024-02-21T05:12:40;9.20;99.90
15638;DHT22;26604;53.596;10.042;2024-02-21T05:15:07;9.20;99.90
15638;DHT22;26604;53.596;10.042;2024-02-21T05:17:35;9.20;99.90
15638;DHT22;26604;53.596;10.042;2024-02-21T05:20:03;9.20;99.90
15638;DHT22;26604;53.596;10.042;2024-02-21T05:22:31;9.20;99.90
15638;DHT22;26604;53.596;10.042;2024-02-21T05:24:58;9.20;99.90
15638;DHT22;26604;53.596;10.042;2024-02-21T05:27:25;9.20;99.90
15638;DHT22;26604;53.596;10.042;2024-02-21T05:29:53;9.10;99.90
15638;DHT22;26604;53.596;10.042;2024-02-21T05:32:20;9.20;99.90
15638;DHT22;26604;53.596;10.042;2024-02-21T05:34:50;9.20;99.90
15638;DHT22;26604;53.596;10.042;2024-02-21T05:37:17;9.20;99.90
15638;DHT22;26604;53.596;10.042;2024-02-21T05:39:44;9.20;99.90
15638;DHT22;26604;53.596;10.042;2024-02-21T05:42:11;9.20;99.90
15638;DHT22;26604;53.596;10.042;2024-02-21T05:44:37;9.10;99.90
15638;DHT22;26604;53.596;10.042;2024-02-21T05:47:04;9.10;99.90
15638;DHT22;26604;53.596;10.042;2024-02-21T05:49:35;9.10;99.90
15638;DHT22;26604;53.596;10.042;2024-02-21T05:52:04;9.10;99.90
15638;DHT22;26604;53.596;10.042;2024-02-21T05:54:37;9.10;99.90
15638;DHT22;26604;53.596;10.042;2024-02-21T05:57:04;9.10;99.90
15638;DHT22;26604;53.596;10.042;2024-02-21T05:59:31;9.10;99.90
15638;DHT22;26604;53.596;10.042;2024-02-21T06:01:58;9.20;99.90
15638;DHT22;26604;53.596;10.042;2024-02-21T06:04:25;9.10;99.90
15638;DHT22;26604;53.596;10.042;2024-02-21T06:06:52;9.20;99.90
15638;DHT22;26604;53.596;10.042;2024-02-21T06:09:20;9.10;99.90
15638;DHT22;26604;53.596;10.042;2024-02-21T06:11:47;9.10;99.90
15638;DHT22;26604;53.596;10.042;2024-02-21T06:14:14;9.10;99.90
15638;DHT22;26604;53.596;10.042;2024-02-21T06:16:43;9.10;99.90
15638;DHT22;26604;53.596;10.042;2024-02-21T06:19:09;9.10;99.90
15638;DHT22;26604;53.596;10.042;2024-02-21T06:21:36;9.00;99.90
15638;DHT22;26604;53.596;10.042;2024-02-21T06:24:04;9.10;99.90
15638;DHT22;26604;53.596;10.042;2024-02-21T06:26:34;9.00;99.90
15638;DHT22;26604;53.596;10.042;2024-02-21T06:29:01;9.00;99.90
15638;DHT22;26604;53.596;10.042;2024-02-21T06:31:29;9.10;99.90
15638;DHT22;26604;53.596;10.042;2024-02-21T06:33:57;9.00;99.90
15638;DHT22;26604;53.596;10.042;2024-02-21T06:36:24;9.10;99.90
15638;DHT22;26604;53.596;10.042;2024-02-21T06:38:50;9.00;99.90
15638;DHT22;26604;53.596;10.042;2024-02-21T06:41:18;9.00;99.90
15638;DHT22;26604;53.596;10.042;2024-02-21T06:43:46;9.10;99.90
15638;DHT22;26604;53.596;10.042;2024-02-21T06:46:23;9.10;99.90
15638;DHT22;26604;53.596;10.042;2024-02-21T06:48:49;9.10;99.90
15638;DHT22;26604;53.596;10.042;2024-02-21T06:51:16;9.10;99.90
15638;DHT22;26604;53.596;10.042;2024-02-21T06:53:43;9.10;99.90
15638;DHT22;26604;53.596;10.042;2024-02-21T06:56:10;9.10;99.90
15638;DHT22;26604;53.596;10.042;2024-02-21T06:58:37;9.10;99.90
15638;DHT22;26604;53.596;10.042;2024-02-21T07:01:06;9.10;99.90
15638;DHT22;26604;53.596;10.042;2024-02-21T07:03:44;9.10;99.90
15638;DHT22;26604;53.596;10.042;2024-02-21T07:06:11;9.10;99.90
15638;DHT22;26604;53.596;10.042;2024-02-21T07:08:38;9.10;99.90
15638;DHT22;26604;53.596;10.042;2024-02-21T07:11:05;9.10;99.90
15638;DHT22;26604;53.596;10.042;2024-02-21T07:13:32;9.10;99.90
15638;DHT22;26604;53.596;10.042;2024-02-21T07:15:59;9.20;99.90
15638;DHT22;26604;53.596;10.042;2024-02-21T07:18:25;9.20;99.90
15638;DHT22;26604;53.596;10.042;2024-02-21T07:20:54;9.20;99.90
15638;DHT22;26604;53.596;10.042;2024-02-21T07:23:21;9.20;99.90
15638;DHT22;26604;53.596;10.042;2024-02-21T07:25:48;9.20;99.90
15638;DHT22;26604;53.596;10.042;2024-02-21T07:28:14;9.20;99.90
15638;DHT22;26604;53.596;10.042;2024-02-21T07:30:42;9.30;99.90
15638;DHT22;26604;53.596;10.042;2024-02-21T07:33:09;9.30;99.90
15638;DHT22;26604;53.596;10.042;2024-02-21T07:35:35;9.30;99.90
15638;DHT22;26604;53.596;10.042;2024-02-21T07:38:05;9.30;99.90
15638;DHT22;26604;53.596;10.042;2024-02-21T07:40:32;9.30;99.90
15638;DHT22;26604;53.596;10.042;2024-02-21T07:42:59;9.40;99.90
15638;DHT22;26604;53.596;10.042;2024-02-21T07:45:26;9.40;99.90
15638;DHT22;26604;53.596;10.042;2024-02-21T07:47:53;9.40;99.90
15638;DHT22;26604;53.596;10.042;2024-02-21T07:50:20;9.40;99.90
15638;DHT22;26604;53.596;10.042;2024-02-21T07:52:47;9.40;99.90
15638;DHT22;26604;53.596;10.042;2024-02-21T07:55:16;9.50;99.90
15638;DHT22;26604;53.596;10.042;2024-02-21T07:57:43;9.40;99.90
15638;DHT22;26604;53.596;10.042;2024-02-21T08:00:11;9.50;99.90
15638;DHT22;26604;53.596;10.042;2024-02-21T08:02:45;9.50;99.90
15638;DHT22;26604;53.596;10.042;2024-02-21T08:05:12;9.50;99.90
15638;DHT22;26604;53.596;10.042;2024-02-21T08:07:39;9.50;99.90
15638;DHT22;26604;53.596;10.042;2024-02-21T08:10:07;9.60;99.90
15638;DHT22;26604;53.596;10.042;2024-02-21T08:12:35;9.70;99.90
15638;DHT22;26604;53.596;10.042;2024-02-21T08:15:03;9.70;99.90
15638;DHT22;26604;53.596;10.042;2024-02-21T08:17:30;9.80;99.90
15638;DHT22;26604;53.596;10.042;2024-02-21T08:19:57;9.80;99.90
15638;DHT22;26604;53.596;10.042;2024-02-21T08:22:24;9.90;99.90
15638;DHT22;26604;53.596;10.042;2024-02-21T08:24:51;9.90;99.90
15638;DHT22;26604;53.596;10.042;2024-02-21T08:27:18;9.90;99.90
15638;DHT22;26604;53.596;10.042;2024-02-21T08:29:47;9.90;99.90
15638;DHT22;26604;53.596;10.042;2024-02-21T08:32:14;10.00;99.90
15638;DHT22;26604;53.596;10.042;2024-02-21T08:34:40;10.00;99.90
15638;DHT22;26604;53.596;10.042;2024-02-21T08:37:07;10.10;99.90
15638;DHT22;26604;53.596;10.042;2024-02-21T08:39:36;10.10;99.90
15638;DHT22;26604;53.596;10.042;2024-02-21T08:42:03;10.20;99.90
15638;DHT22;26604;53.596;10.042;2024-02-21T08:44:30;10.30;99.90
15638;DHT22;26604;53.596;10.042;2024-02-21T08:46:58;10.30;99.90
15638;DHT22;26604;53.596;10.042;2024-02-21T08:49:25;10.30;99.90
15638;DHT22;26604;53.596;10.042;2024-02-21T08:51:54;10.30;99.90
15638;DHT22;26604;53.596;10.042;2024-02-21T08:54:20;10.30;99.90
15638;DHT22;26604;53.596;10.042;2024-02-21T08:56:47;10.50;99.90
15638;DHT22;26604;53.596;10.042;2024-02-21T08:59:15;10.60;99.90
15638;DHT22;26604;53.596;10.042;2024-02-21T09:01:43;10.70;99.90
15638;DHT22;26604;53.596;10.042;2024-02-21T09:04:11;10.60;99.90
15638;DHT22;26604;53.596;10.042;2024-02-21T09:06:39;10.60;99.90
15638;DHT22;26604;53.596;10.042;2024-02-21T09:09:08;10.60;99.90
15638;DHT22;26604;53.596;10.042;2024-02-21T09:11:35;10.60;99.90
15638;DHT22;26604;53.596;10.042;2024-02-21T09:14:02;10.60;99.90
15638;DHT22;26604;53.596;10.042;2024-02-21T09:16:31;10.70;99.90
15638;DHT22;26604;53.596;10.042;2024-02-21T09:18:57;10.70;99.90
15638;DHT22;26604;53.596;10.042;2024-02-21T09:21:26;10.70;99.90
15638;DHT22;26604;53.596;10.042;2024-02-21T09:23:53;10.70;99.90
15638;DHT22;26604;53.596;10.042;2024-02-21T09:26:20;10.70;99.90
15638;DHT22;26604;53.596;10.042;2024-02-21T09:28:47;10.70;99.90
15638;DHT22;26604;53.596;10.042;2024-02-21T09:31:14;10.70;99.90
15638;DHT22;26604;53.596;10.042;2024-02-21T09:33:41;10.70;99.90
15638;DHT22;26604;53.596;10.042;2024-02-21T09:36:08;10.70;99.90
15638;DHT22;26604;53.596;10.042;2024-02-21T09:38:36;10.70;99.90
15638;DHT22;26604;53.596;10.042;2024-02-21T09:41:11;10.70;99.90
15638;DHT22;26604;53.596;10.042;2024-02-21T09:43:41;10.70;99.90
15638;DHT22;26604;53.596;10.042;2024-02-21T09:46:15;10.70;99.90
15638;DHT22;26604;53.596;10.042;2024-02-21T09:48:52;10.60;99.90
15638;DHT22;26604;53.596;10.042;2024-02-21T09:51:22;10.60;99.90
15638;DHT22;26604;53.596;10.042;2024-02-21T09:53:53;10.50;99.90
15638;DHT22;26604;53.596;10.042;2024-02-21T09:56:20;10.50;99.90
15638;DHT22;26604;53.596;10.042;2024-02-21T09:58:47;10.50;99.90
15638;DHT22;26604;53.596;10.042;2024-02-21T10:01:14;10.50;99.90
15638;DHT22;26604;53.596;10.042;2024-02-21T10:03:42;10.40;99.90
15638;DHT22;26604;53.596;10.042;2024-02-21T10:06:09;10.40;99.90
15638;DHT22;26604;53.596;10.042;2024-02-21T10:08:36;10.40;99.90
15638;DHT22;26604;53.596;10.042;2024-02-21T10:11:04;10.40;99.90
15638;DHT22;26604;53.596;10.042;2024-02-21T10:13:35;10.40;99.90
15638;DHT22;26604;53.596;10.042;2024-02-21T10:16:04;10.40;99.90
15638;DHT22;26604;53.596;10.042;2024-02-21T10:18:32;10.30;99.90
15638;DHT22;26604;53.596;10.042;2024-02-21T10:21:02;10.30;99.90
15638;DHT22;26604;53.596;10.042;2024-02-21T10:23:41;10.30;99.90
15638;DHT22;26604;53.596;10.042;2024-02-21T10:26:09;10.30;99.90
15638;DHT22;26604;53.596;10.042;2024-02-21T10:28:37;10.30;99.90
15638;DHT22;26604;53.596;10.042;2024-02-21T10:31:07;10.20;99.90
15638;DHT22;26604;53.596;10.042;2024-02-21T10:33:34;10.20;99.90
15638;DHT22;26604;53.596;10.042;2024-02-21T10:36:08;10.20;99.90
15638;DHT22;26604;53.596;10.042;2024-02-21T10:38:36;10.20;99.90
15638;DHT22;26604;53.596;10.042;2024-02-21T10:41:04;10.30;99.90
15638;DHT22;26604;53.596;10.042;2024-02-21T10:43:38;10.30;99.90
15638;DHT22;26604;53.596;10.042;2024-02-21T10:46:06;10.30;99.90
15638;DHT22;26604;53.596;10.042;2024-02-21T10:48:41;10.30;99.90
15638;DHT22;26604;53.596;10.042;2024-02-21T10:51:15;10.30;99.90
15638;DHT22;26604;53.596;10.042;2024-02-21T10:53:45;10.30;99.90
15638;DHT22;26604;53.596;10.042;2024-02-21T10:56:32;10.40;99.90
15638;DHT22;26604;53.596;10.042;2024-02-21T10:59:03;10.50;99.90
15638;DHT22;26604;53.596;10.042;2024-02-21T11:01:31;10.50;99.90
15638;DHT22;26604;53.596;10.042;2024-02-21T11:04:01;10.50;99.90
15638;DHT22;26604;53.596;10.042;2024-02-21T11:06:29;10.50;99.90
15638;DHT22;26604;53.596;10.042;2024-02-21T11:09:03;10.50;99.90
15638;DHT22;26604;53.596;10.042;2024-02-21T11:11:33;10.40;99.90
15638;DHT22;26604;53.596;10.042;2024-02-21T11:14:08;10.40;99.90
15638;DHT22;26604;53.596;10.042;2024-02-21T11:16:36;10.40;99.90
15638;DHT22;26604;53.596;10.042;2024-02-21T11:19:06;10.30;99.90
15638;DHT22;26604;53.596;10.042;2024-02-21T11:21:33;10.30;99.90
15638;DHT22;26604;53.596;10.042;2024-02-21T11:24:01;10.30;99.90
15638;DHT22;26604;53.596;10.042;2024-02-21T11:26:31;10.30;99.90
15638;DHT22;26604;53.596;10.042;2024-02-21T11:28:59;10.30;99.90
15638;DHT22;26604;53.596;10.042;2024-02-21T11:31:38;10.20;99.90
15638;DHT22;26604;53.596;10.042;2024-02-21T11:34:08;10.20;99.90
15638;DHT22;26604;53.596;10.042;2024-02-21T11:36:35;10.20;99.90
15638;DHT22;26604;53.596;10.042;2024-02-21T11:39:03;10.20;99.90
15638;DHT22;26604;53.596;10.042;2024-02-21T11:41:31;10.20;99.90
15638;DHT22;26604;53.596;10.042;2024-02-21T11:43:57;10.30;99.90
15638;DHT22;26604;53.596;10.042;2024-02-21T11:46:24;10.30;99.90
15638;DHT22;26604;53.596;10.042;2024-02-21T11:48:53;10.30;99.90
15638;DHT22;26604;53.596;10.042;2024-02-21T11:51:25;10.30;99.90
15638;DHT22;26604;53.596;10.042;2024-02-21T11:53:52;10.20;99.90
15638;DHT22;26604;53.596;10.042;2024-02-21T11:56:19;10.20;99.90
15638;DHT22;26604;53.596;10.042;2024-02-21T11:58:48;10.30;99.90
15638;DHT22;26604;53.596;10.042;2024-02-21T12:01:15;10.30;99.90
15638;DHT22;26604;53.596;10.042;2024-02-21T12:03:42;10.30;99.90
15638;DHT22;26604;53.596;10.042;2024-02-21T12:06:16;10.30;99.90
15638;DHT22;26604;53.596;10.042;2024-02-21T12:08:47;10.30;99.90
15638;DHT22;26604;53.596;10.042;2024-02-21T12:11:21;10.30;99.90
15638;DHT22;26604;53.596;10.042;2024-02-21T12:13:58;10.30;99.90
15638;DHT22;26604;53.596;10.042;2024-02-21T12:16:27;10.30;99.90
15638;DHT22;26604;53.596;10.042;2024-02-21T12:18:54;10.40;99.90
15638;DHT22;26604;53.596;10.042;2024-02-21T12:21:25;10.50;99.90
15638;DHT22;26604;53.596;10.042;2024-02-21T12:23:54;10.60;99.90
15638;DHT22;26604;53.596;10.042;2024-02-21T12:26:21;10.70;99.90
15638;DHT22;26604;53.596;10.042;2024-02-21T12:28:47;10.70;99.90
15638;DHT22;26604;53.596;10.042;2024-02-21T12:31:14;10.70;99.90
15638;DHT22;26604;53.596;10.042;2024-02-21T12:33:42;10.60;99.90
15638;DHT22;26604;53.596;10.042;2024-02-21T12:36:09;10.60;99.90
15638;DHT22;26604;53.596;10.042;2024-02-21T12:38:37;10.50;99.90
15638;DHT22;26604;53.596;10.042;2024-02-21T12:41:04;10.50;99.90
15638;DHT22;26604;53.596;10.042;2024-02-21T12:43:33;10.40;99.90
15638;DHT22;26604;53.596;10.042;2024-02-21T12:45:59;10.40;99.90
15638;DHT22;26604;53.596;10.042;2024-02-21T12:48:27;10.30;99.90
15638;DHT22;26604;53.596;10.042;2024-02-21T12:50:54;10.30;99.90
15638;DHT22;26604;53.596;10.042;2024-02-21T12:53:21;10.30;99.90
15638;DHT22;26604;53.596;10.042;2024-02-21T12:55:50;10.30;99.90
15638;DHT22;26604;53.596;10.042;2024-02-21T12:58:17;10.30;99.90
15638;DHT22;26604;53.596;10.042;2024-02-21T13:00:44;10.20;99.90
15638;DHT22;26604;53.596;10.042;2024-02-21T13:03:11;10.20;99.90
15638;DHT22;26604;53.596;10.042;2024-02-21T13:05:38;10.20;99.90
15638;DHT22;26604;53.596;10.042;2024-02-21T13:08:05;10.20;99.90
15638;DHT22;26604;53.596;10.042;2024-02-21T13:10:32;10.20;99.90
15638;DHT22;26604;53.596;10.042;2024-02-21T13:13:02;10.30;99.90
15638;DHT22;26604;53.596;10.042;2024-02-21T13:15:28;10.30;99.90
15638;DHT22;26604;53.596;10.042;2024-02-21T13:17:56;10.40;99.90
15638;DHT22;26604;53.596;10.042;2024-02-21T13:20:23;10.50;99.90
15638;DHT22;26604;53.596;10.042;2024-02-21T13:22:50;10.60;99.90
15638;DHT22;26604;53.596;10.042;2024-02-21T13:25:17;10.70;99.90
15638;DHT22;26604;53.596;10.042;2024-02-21T13:27:46;10.80;99.90
15638;DHT22;26604;53.596;10.042;2024-02-21T13:30:15;10.90;99.90
15638;DHT22;26604;53.596;10.042;2024-02-21T13:32:43;11.00;99.90
15638;DHT22;26604;53.596;10.042;2024-02-21T13:35:11;11.10;99.90
15638;DHT22;26604;53.596;10.042;2024-02-21T13:37:38;11.20;99.90
15638;DHT22;26604;53.596;10.042;2024-02-21T13:40:06;11.20;99.90
15638;DHT22;26604;53.596;10.042;2024-02-21T13:42:34;11.10;99.90
15638;DHT22;26604;53.596;10.042;2024-02-21T13:45:01;11.10;99.90
15638;DHT22;26604;53.596;10.042;2024-02-21T13:47:29;11.10;99.90
15638;DHT22;26604;53.596;10.042;2024-02-21T13:49:56;11.00;99.90
15638;DHT22;26604;53.596;10.042;2024-02-21T13:52:23;11.00;99.90
15638;DHT22;26604;53.596;10.042;2024-02-21T13:54:52;10.90;99.90
15638;DHT22;26604;53.596;10.042;2024-02-21T13:57:19;10.80;99.90
15638;DHT22;26604;53.596;10.042;2024-02-21T13:59:45;10.80;99.90
15638;DHT22;26604;53.596;10.042;2024-02-21T14:02:12;10.80;99.90
15638;DHT22;26604;53.596;10.042;2024-02-21T14:04:40;10.90;99.90
15638;DHT22;26604;53.596;10.042;2024-02-21T14:07:08;10.90;99.90
15638;DHT22;26604;53.596;10.042;2024-02-21T14:09:34;10.90;99.90
15638;DHT22;26604;53.596;10.042;2024-02-21T14:12:02;11.00;99.90
15638;DHT22;26604;53.596;10.042;2024-02-21T14:14:32;11.10;99.90
15638;DHT22;26604;53.596;10.042;2024-02-21T14:17:00;11.10;99.90
15638;DHT22;26604;53.596;10.042;2024-02-21T14:19:27;11.20;99.90
15638;DHT22;26604;53.596;10.042;2024-02-21T14:21:55;11.30;99.90
15638;DHT22;26604;53.596;10.042;2024-02-21T14:24:22;11.30;99.90
15638;DHT22;26604;53.596;10.042;2024-02-21T14:26:49;11.40;99.90
15638;DHT22;26604;53.596;10.042;2024-02-21T14:29:16;11.30;99.90
15638;DHT22;26604;53.596;10.042;2024-02-21T14:31:43;11.50;99.90
15638;DHT22;26604;53.596;10.042;2024-02-21T14:34:10;11.50;99.90
15638;DHT22;26604;53.596;10.042;2024-02-21T14:36:37;11.50;99.90
15638;DHT22;26604;53.596;10.042;2024-02-21T14:39:05;11.60;99.90
15638;DHT22;26604;53.596;10.042;2024-02-21T14:41:32;11.50;99.90
15638;DHT22;26604;53.596;10.042;2024-02-21T14:44:00;11.50;99.90
15638;DHT22;26604;53.596;10.042;2024-02-21T14:46:29;11.40;99.90
15638;DHT22;26604;53.596;10.042;2024-02-21T14:48:56;11.40;99.90
15638;DHT22;26604;53.596;10.042;2024-02-21T14:51:22;11.40;99.90
15638;DHT22;26604;53.596;10.042;2024-02-21T14:53:49;11.40;99.90
15638;DHT22;26604;53.596;10.042;2024-02-21T14:56:18;11.40;99.90
15638;DHT22;26604;53.596;10.042;2024-02-21T14:58:46;11.30;99.90
15638;DHT22;26604;53.596;10.042;2024-02-21T15:01:13;11.30;99.90
15638;DHT22;26604;53.596;10.042;2024-02-21T15:03:40;11.20;99.90
15638;DHT22;26604;53.596;10.042;2024-02-21T15:06:08;11.20;99.90
15638;DHT22;26604;53.596;10.042;2024-02-21T15:08:35;11.10;99.90
15638;DHT22;26604;53.596;10.042;2024-02-21T15:11:04;11.10;99.90
15638;DHT22;26604;53.596;10.042;2024-02-21T15:13:35;11.00;99.90
15638;DHT22;26604;53.596;10.042;2024-02-21T15:16:03;11.00;99.90
15638;DHT22;26604;53.596;10.042;2024-02-21T15:18:30;11.00;99.90
15638;DHT22;26604;53.596;10.042;2024-02-21T15:20:58;10.90;99.90
15638;DHT22;26604;53.596;10.042;2024-02-21T15:23:25;10.80;99.90
15638;DHT22;26604;53.596;10.042;2024-02-21T15:25:52;10.80;99.90
15638;DHT22;26604;53.596;10.042;2024-02-21T15:28:21;10.70;99.90
15638;DHT22;26604;53.596;10.042;2024-02-21T15:30:49;10.70;99.90